Main page
METAR-TAF:

METAR-TAF

Airports :

Wiener Neustadt East Airport

Wiener Neustadt, Austria

latitude: 47-50-36N, longitude: 016-15-29E, elevation: 272 m

Current weather observation

The report was made 9 hours and 49 minutes ago, at 16:00 UTC
Wind 6 kt from the East
Temperature
Pressure

METAR: LOAN 191600Z 09006KT 15KM FEW020CU SCT060SC BKN090AC

Time: 02:49 (01:49 UTC)

Forecast

The report was made 14 hours and 24 minutes ago, at 11:25 UTC
Forecast valid from 19 at 12 UTC to 19 at 21 UTC
Wind 2 kt from variable directions
Visibility 10 km or more
Few clouds at a height of 3000 ft
Broken clouds at a height of 10000 ft
Temporary
from 19 at 12 UTC to 19 at 21 UTC
Wind 7 kt from the East/Southeast
Becoming
from 19 at 16 UTC to 19 at 18 UTC
Broken clouds at a height of 3000 ft

TAF: LOAN 191125Z 1912/1921 VRB02KT 9999 FEW030 BKN100 TEMPO 1912/1921 11007KT BECMG 1916/1918 BKN030

Weather observations and forecasts of more than 4000 airports (METAR and TAF reports).

The available stations are represented by yellow and red dots on the map.

Hover mouse over dot to see the name of the station.

Then click to see weather observations and forecasts.

To change the map : click on the green buttons with a black cross to zoom in, on the green button with a dash to zoom out, or on the green arrows for adjacent maps.


METAR-TAF: